createdAt,value
2019-04-01T00:00:23.284Z,1019.83
2019-04-01T00:01:23.014Z,1019.80
2019-04-01T00:03:23.084Z,1019.80
2019-04-01T00:04:23.110Z,1019.80
2019-04-01T00:06:23.271Z,1019.75
2019-04-01T00:07:23.502Z,1019.70
2019-04-01T00:08:23.240Z,1019.68
2019-04-01T00:09:23.277Z,1019.68
2019-04-01T00:10:23.300Z,1019.67
2019-04-01T00:11:23.334Z,1019.69
2019-04-01T00:12:23.372Z,1019.67
2019-04-01T00:13:23.398Z,1019.66
2019-04-01T00:14:23.679Z,1019.67
2019-04-01T00:15:23.414Z,1019.63
2019-04-01T00:16:23.496Z,1019.69
2019-04-01T00:17:23.530Z,1019.66
2019-04-01T00:18:23.659Z,1019.65
2019-04-01T00:19:23.693Z,1019.66
2019-04-01T00:20:23.627Z,1019.68
2019-04-01T00:21:24.259Z,1019.65
2019-04-01T00:22:23.636Z,1019.69
2019-04-01T00:23:23.672Z,1019.68
2019-04-01T00:24:23.748Z,1019.69
2019-04-01T00:25:23.737Z,1019.69
2019-04-01T00:26:23.819Z,1019.67
2019-04-01T00:27:23.950Z,1019.66
2019-04-01T00:28:24.179Z,1019.65
2019-04-01T00:29:23.911Z,1019.66
2019-04-01T00:30:23.947Z,1019.63
2019-04-01T00:31:23.980Z,1019.66
2019-04-01T00:33:24.044Z,1019.64
2019-04-01T00:34:24.024Z,1019.64
2019-04-01T00:35:24.607Z,1019.65
2019-04-01T00:36:24.152Z,1019.67
2019-04-01T00:37:24.269Z,1019.65
2019-04-01T00:38:24.199Z,1019.69
2019-04-01T00:39:24.180Z,1019.68
2019-04-01T00:40:24.218Z,1019.68
2019-04-01T00:42:24.278Z,1019.74
2019-04-01T00:43:24.687Z,1019.72
2019-04-01T00:44:24.391Z,1019.73
2019-04-01T00:45:25.128Z,1019.72
2019-04-01T00:46:24.406Z,1019.68
2019-04-01T00:47:24.441Z,1019.70
2019-04-01T00:48:24.517Z,1019.71
2019-04-01T00:50:24.590Z,1019.75
2019-04-01T00:51:24.866Z,1019.72
2019-04-01T00:52:24.652Z,1019.73
2019-04-01T00:55:24.749Z,1019.71
2019-04-01T00:56:24.724Z,1019.71
2019-04-01T00:57:24.913Z,1019.73
2019-04-01T00:58:25.090Z,1019.72
2019-04-01T00:59:24.829Z,1019.71
2019-04-01T01:00:24.903Z,1019.73
2019-04-01T01:01:25.245Z,1019.72
2019-04-01T01:02:25.071Z,1019.68
2019-04-01T01:03:24.954Z,1019.73
2019-04-01T01:04:25.035Z,1019.73
2019-04-01T01:05:25.371Z,1019.68
2019-04-01T01:06:25.121Z,1019.69
2019-04-01T01:07:25.129Z,1019.71
2019-04-01T01:08:25.176Z,1019.68
2019-04-01T01:09:25.391Z,1019.72
2019-04-01T01:10:25.324Z,1019.67
2019-04-01T01:11:25.208Z,1019.65
2019-04-01T01:12:25.644Z,1019.69
2019-04-01T01:13:25.345Z,1019.67
2019-04-01T01:14:25.303Z,1019.65
2019-04-01T01:15:25.388Z,1019.64
2019-04-01T01:16:25.368Z,1019.66
2019-04-01T01:17:25.453Z,1019.65
2019-04-01T01:18:25.437Z,1019.65
2019-04-01T01:19:25.824Z,1019.66
2019-04-01T01:20:25.492Z,1019.62
2019-04-01T01:21:26.276Z,1019.66
2019-04-01T01:22:25.563Z,1019.64
2019-04-01T01:23:25.641Z,1019.63
2019-04-01T01:24:25.625Z,1019.61
2019-04-01T01:25:25.712Z,1019.63
2019-04-01T01:26:26.036Z,1019.64
2019-04-01T01:27:25.779Z,1019.63
2019-04-01T01:28:25.758Z,1019.62
2019-04-01T01:29:25.837Z,1019.65
2019-04-01T01:30:25.813Z,1019.56
2019-04-01T01:31:25.895Z,1019.61
2019-04-01T01:32:26.032Z,1019.60
2019-04-01T01:33:26.225Z,1019.60
2019-04-01T01:34:25.948Z,1019.59
2019-04-01T01:35:25.987Z,1019.62
2019-04-01T01:36:26.013Z,1019.62
2019-04-01T01:37:26.155Z,1019.59
2019-04-01T01:38:26.125Z,1019.56
2019-04-01T01:39:26.155Z,1019.55
2019-04-01T01:40:26.485Z,1019.54
2019-04-01T01:41:26.214Z,1019.59
2019-04-01T01:42:26.207Z,1019.58
2019-04-01T01:43:26.287Z,1019.54
2019-04-01T01:44:26.309Z,1019.60
2019-04-01T01:45:26.344Z,1019.52
2019-04-01T01:46:26.386Z,1019.54
2019-04-01T01:47:26.719Z,1019.54
2019-04-01T01:48:26.443Z,1019.48
2019-04-01T01:49:26.482Z,1019.51
2019-04-01T01:50:26.506Z,1019.51
2019-04-01T01:51:26.494Z,1019.51
2019-04-01T01:52:26.573Z,1019.50
2019-04-01T01:53:26.611Z,1019.47
2019-04-01T01:54:26.944Z,1019.47
2019-04-01T01:55:26.617Z,1019.42
2019-04-01T01:56:26.696Z,1019.42
2019-04-01T01:57:26.730Z,1019.43
2019-04-01T01:58:26.865Z,1019.39
2019-04-01T01:59:26.902Z,1019.43
2019-04-01T02:00:26.820Z,1019.38
2019-04-01T02:01:27.261Z,1019.35
2019-04-01T02:02:26.892Z,1019.36
2019-04-01T02:03:26.872Z,1019.39
2019-04-01T02:04:26.951Z,1019.41
2019-04-01T02:05:27.145Z,1019.39
2019-04-01T02:06:27.017Z,1019.40
2019-04-01T02:07:27.301Z,1019.37
2019-04-01T02:08:27.082Z,1019.43
2019-04-01T02:09:27.117Z,1019.39
2019-04-01T02:10:27.144Z,1019.43
2019-04-01T02:11:27.172Z,1019.41
2019-04-01T02:12:27.156Z,1019.47
2019-04-01T02:13:27.534Z,1019.40
2019-04-01T02:14:27.367Z,1019.44
2019-04-01T02:15:27.245Z,1019.41
2019-04-01T02:16:27.437Z,1019.42
2019-04-01T02:17:27.364Z,1019.41
2019-04-01T02:18:27.342Z,1019.39
2019-04-01T02:19:27.729Z,1019.38
2019-04-01T02:20:27.409Z,1019.38
2019-04-01T02:21:27.486Z,1019.36
2019-04-01T02:22:27.528Z,1019.33
2019-04-01T02:23:27.654Z,1019.30
2019-04-01T02:24:27.586Z,1019.29
2019-04-01T02:25:27.619Z,1019.28
2019-04-01T02:26:27.955Z,1019.30
2019-04-01T02:27:27.678Z,1019.28
2019-04-01T02:28:27.717Z,1019.25
2019-04-01T02:29:27.747Z,1019.31
2019-04-01T02:30:27.777Z,1019.29
2019-04-01T02:31:27.754Z,1019.30
2019-04-01T02:32:27.827Z,1019.29
2019-04-01T02:33:28.172Z,1019.31
2019-04-01T02:34:27.905Z,1019.29
2019-04-01T02:35:27.886Z,1019.28
2019-04-01T02:36:27.920Z,1019.27
2019-04-01T02:37:28.101Z,1019.26
2019-04-01T02:38:27.977Z,1019.26
2019-04-01T02:39:28.064Z,1019.25
2019-04-01T02:40:28.392Z,1019.24
2019-04-01T02:41:28.125Z,1019.27
2019-04-01T02:42:28.110Z,1019.26
2019-04-01T02:43:28.194Z,1019.27
2019-04-01T02:45:28.255Z,1019.31
2019-04-01T02:46:28.344Z,1019.27
2019-04-01T02:47:28.615Z,1019.29
2019-04-01T02:49:28.380Z,1019.22
2019-04-01T02:50:28.414Z,1019.26
2019-04-01T02:51:28.440Z,1019.24
2019-04-01T02:52:28.494Z,1019.26
2019-04-01T02:53:28.524Z,1019.23
2019-04-01T02:54:28.792Z,1019.24
2019-04-01T02:55:28.570Z,1019.23
2019-04-01T02:56:28.547Z,1019.21
2019-04-01T02:57:28.655Z,1019.18
2019-04-01T02:58:28.773Z,1019.22
2019-04-01T02:59:28.651Z,1019.19
2019-04-01T03:00:28.679Z,1019.21
2019-04-01T03:01:29.060Z,1019.18
2019-04-01T03:02:28.793Z,1019.20
2019-04-01T03:03:28.817Z,1019.18
2019-04-01T03:04:28.812Z,1019.15
2019-04-01T03:05:28.886Z,1019.17
2019-04-01T03:06:29.028Z,1019.10
2019-04-01T03:07:28.954Z,1019.16
2019-04-01T03:09:29.260Z,1019.14
2019-04-01T03:10:29.344Z,1019.16
2019-04-01T03:11:29.026Z,1019.14
2019-04-01T03:12:29.055Z,1019.15
2019-04-01T03:13:29.137Z,1019.15
2019-04-01T03:14:29.174Z,1019.11
2019-04-01T03:15:29.157Z,1019.14
2019-04-01T03:16:29.544Z,1019.17
2019-04-01T03:17:29.270Z,1019.16
2019-04-01T03:18:29.292Z,1019.18
2019-04-01T03:19:29.331Z,1019.19
2019-04-01T03:20:29.365Z,1019.16
2019-04-01T03:22:29.425Z,1019.16
2019-04-01T03:23:29.755Z,1019.13
2019-04-01T03:24:29.487Z,1019.12
2019-04-01T03:25:29.528Z,1019.12
2019-04-01T03:27:29.585Z,1019.16
2019-04-01T03:28:29.614Z,1019.18
2019-04-01T03:29:29.593Z,1019.16
2019-04-01T03:30:29.979Z,1019.16
2019-04-01T03:31:29.765Z,1019.18
2019-04-01T03:32:29.746Z,1019.14
2019-04-01T03:33:29.768Z,1019.12
2019-04-01T03:34:29.825Z,1019.09
2019-04-01T03:35:29.859Z,1019.12
2019-04-01T03:36:29.869Z,1019.10
2019-04-01T03:37:30.204Z,1019.12
2019-04-01T03:38:29.935Z,1019.10
2019-04-01T03:39:29.920Z,1019.05
2019-04-01T03:40:29.952Z,1019.08
2019-04-01T03:41:30.027Z,1019.06
2019-04-01T03:42:30.052Z,1019.07
2019-04-01T03:43:30.041Z,1019.08
2019-04-01T03:44:30.374Z,1019.07
2019-04-01T03:45:30.099Z,1019.07
2019-04-01T03:46:30.127Z,1019.02
2019-04-01T03:47:30.323Z,1019.02
2019-04-01T03:48:30.245Z,1018.99
2019-04-01T03:49:30.295Z,1019.03
2019-04-01T03:50:30.309Z,1019.00
2019-04-01T03:51:30.591Z,1019.01
2019-04-01T03:52:30.370Z,1019.03
2019-04-01T03:53:30.401Z,1019.02
2019-04-01T03:54:30.441Z,1019.02
2019-04-01T03:55:30.459Z,1019.01
2019-04-01T03:56:30.595Z,1019.02
2019-04-01T03:57:30.477Z,1019.03
2019-04-01T03:58:30.820Z,1019.04
2019-04-01T03:59:30.600Z,1019.04
2019-04-01T04:00:30.620Z,1019.09
2019-04-01T04:01:30.890Z,1019.05
2019-04-01T04:02:30.635Z,1019.05
2019-04-01T04:03:30.670Z,1019.10
2019-04-01T04:04:30.748Z,1019.08
2019-04-01T04:05:31.074Z,1019.08
2019-04-01T04:06:30.759Z,1019.04
2019-04-01T04:07:30.790Z,1019.07
2019-04-01T04:08:30.822Z,1019.08
2019-04-01T04:09:30.847Z,1019.06
2019-04-01T04:10:30.884Z,1019.05
2019-04-01T04:11:30.914Z,1019.02
2019-04-01T04:12:31.273Z,1019.03
2019-04-01T04:13:31.035Z,1019.00
2019-04-01T04:14:31.069Z,1019.01
2019-04-01T04:15:31.099Z,1019.02
2019-04-01T04:16:31.124Z,1019.03
2019-04-01T04:19:31.230Z,1018.98
2019-04-01T04:20:31.653Z,1018.97
2019-04-01T04:21:31.278Z,1019.01
2019-04-01T04:22:31.314Z,1018.98
2019-04-01T04:23:31.294Z,1019.00
2019-04-01T04:24:31.429Z,1018.98
2019-04-01T04:25:31.410Z,1018.98
2019-04-01T04:26:31.444Z,1018.99
2019-04-01T04:27:31.818Z,1019.01
2019-04-01T04:28:31.499Z,1018.97
2019-04-01T04:29:31.532Z,1018.96
2019-04-01T04:30:31.578Z,1018.94
2019-04-01T04:31:31.558Z,1018.96
2019-04-01T04:32:31.949Z,1018.96
2019-04-01T04:33:31.676Z,1018.98
2019-04-01T04:34:31.938Z,1018.96
2019-04-01T04:35:31.727Z,1018.97
2019-04-01T04:36:32.048Z,1018.97
2019-04-01T04:37:31.791Z,1018.94
2019-04-01T04:38:31.814Z,1018.95
2019-04-01T04:39:31.847Z,1018.94
2019-04-01T04:40:31.889Z,1018.97
2019-04-01T04:42:31.940Z,1018.96
2019-04-01T04:43:31.968Z,1018.97
2019-04-01T04:44:32.025Z,1018.95
2019-04-01T04:45:32.039Z,1018.97
2019-04-01T04:46:32.079Z,1018.95
2019-04-01T04:47:32.406Z,1018.96
2019-04-01T04:48:32.240Z,1018.95
2019-04-01T04:49:32.160Z,1018.96
2019-04-01T04:50:32.192Z,1018.93
2019-04-01T04:51:32.325Z,1018.93
2019-04-01T04:53:32.388Z,1018.89
2019-04-01T04:54:32.621Z,1018.89
2019-04-01T04:55:32.301Z,1018.92
2019-04-01T04:56:32.333Z,1018.90
2019-04-01T04:57:32.429Z,1018.88
2019-04-01T04:58:32.436Z,1018.93
2019-04-01T04:59:32.422Z,1018.89
2019-04-01T05:00:32.833Z,1018.94
2019-04-01T05:01:32.487Z,1018.92
2019-04-01T05:02:32.663Z,1018.95
2019-04-01T05:03:32.597Z,1018.93
2019-04-01T05:04:32.626Z,1018.94
2019-04-01T05:05:32.675Z,1018.96
2019-04-01T05:06:32.995Z,1018.93
2019-04-01T05:07:32.670Z,1018.92
2019-04-01T05:08:32.855Z,1018.91
2019-04-01T05:09:32.784Z,1018.92
2019-04-01T05:10:32.767Z,1018.94
2019-04-01T05:11:32.850Z,1018.95
2019-04-01T05:12:32.833Z,1018.95
2019-04-01T05:13:32.925Z,1018.97
2019-04-01T05:14:32.891Z,1018.97
2019-04-01T05:15:32.919Z,1018.97
2019-04-01T05:16:33.010Z,1018.91
2019-04-01T05:17:33.034Z,1018.93
2019-04-01T05:18:33.075Z,1018.94
2019-04-01T05:19:33.349Z,1018.88
2019-04-01T05:20:33.081Z,1018.92
2019-04-01T05:21:33.160Z,1018.93
2019-04-01T05:22:33.139Z,1018.94
2019-04-01T05:24:33.253Z,1018.96
2019-04-01T05:25:33.281Z,1018.94
2019-04-01T05:26:33.566Z,1018.93
2019-04-01T05:27:33.311Z,1018.91
2019-04-01T05:28:33.323Z,1018.92
2019-04-01T05:29:33.361Z,1018.95
2019-04-01T05:30:33.437Z,1018.96
2019-04-01T05:32:33.456Z,1018.96
2019-04-01T05:33:33.547Z,1018.97
2019-04-01T05:34:33.664Z,1019.00
2019-04-01T05:35:33.597Z,1018.98
2019-04-01T05:36:33.630Z,1018.96
2019-04-01T05:37:33.660Z,1019.03
2019-04-01T05:38:33.656Z,1019.01
2019-04-01T05:39:34.023Z,1018.99
2019-04-01T05:40:33.773Z,1018.98
2019-04-01T05:41:33.785Z,1019.01
2019-04-01T05:42:33.762Z,1019.01
2019-04-01T05:43:33.800Z,1019.04
2019-04-01T05:44:33.879Z,1019.02
2019-04-01T05:45:34.204Z,1019.02
2019-04-01T05:46:33.939Z,1019.10
2019-04-01T05:47:33.929Z,1019.08
2019-04-01T05:48:33.951Z,1019.07
2019-04-01T05:49:33.989Z,1019.04
2019-04-01T05:50:34.026Z,1019.03
2019-04-01T05:51:34.107Z,1019.03
2019-04-01T05:52:34.076Z,1019.04
2019-04-01T05:53:34.161Z,1019.04
2019-04-01T05:54:34.138Z,1019.05
2019-04-01T05:55:34.226Z,1019.06
2019-04-01T05:56:34.294Z,1019.03
2019-04-01T05:57:34.536Z,1019.06
2019-04-01T05:58:34.259Z,1019.06
2019-04-01T05:59:34.298Z,1019.08
2019-04-01T06:00:34.378Z,1019.06
2019-04-01T06:01:34.419Z,1019.09
2019-04-01T06:02:34.452Z,1019.06
2019-04-01T06:03:34.476Z,1019.12
2019-04-01T06:04:34.751Z,1019.12
2019-04-01T06:05:34.535Z,1019.09
2019-04-01T06:06:34.565Z,1019.08
2019-04-01T06:07:34.550Z,1019.08
2019-04-01T06:08:34.578Z,1019.06
2019-04-01T06:09:34.658Z,1019.05
2019-04-01T06:10:34.695Z,1019.05
2019-04-01T06:11:35.023Z,1019.08
2019-04-01T06:12:34.848Z,1019.06
2019-04-01T06:13:34.792Z,1019.11
2019-04-01T06:14:34.832Z,1019.09
2019-04-01T06:15:34.847Z,1019.11
2019-04-01T06:16:34.875Z,1019.09
2019-04-01T06:17:34.910Z,1019.10
2019-04-01T06:18:35.240Z,1019.08
2019-04-01T06:19:34.980Z,1019.13
2019-04-01T06:20:35.010Z,1019.13
2019-04-01T06:21:35.053Z,1019.12
2019-04-01T06:22:35.064Z,1019.11
2019-04-01T06:23:35.041Z,1019.14
2019-04-01T06:24:35.080Z,1019.13
2019-04-01T06:25:35.457Z,1019.10
2019-04-01T06:26:35.194Z,1019.09
2019-04-01T06:28:35.255Z,1019.08
2019-04-01T06:29:35.235Z,1019.06
2019-04-01T06:30:35.311Z,1019.09
2019-04-01T06:31:35.342Z,1019.06
2019-04-01T06:32:35.327Z,1019.03
2019-04-01T06:33:35.411Z,1019.06
2019-04-01T06:34:35.389Z,1019.08
2019-04-01T06:35:35.473Z,1019.03
2019-04-01T06:36:38.705Z,1019.04
2019-04-01T06:37:35.543Z,1018.98
2019-04-01T06:38:35.933Z,1018.98
2019-04-01T06:39:35.590Z,1018.98
2019-04-01T06:40:35.980Z,1018.98
2019-04-01T06:42:35.635Z,1019.01
2019-04-01T06:43:35.669Z,1018.98
2019-04-01T06:44:35.751Z,1018.99
2019-04-01T06:45:36.049Z,1019.01
2019-04-01T06:46:35.845Z,1018.99
2019-04-01T06:48:35.841Z,1019.01
2019-04-01T06:50:35.889Z,1019.01
2019-04-01T06:51:35.978Z,1019.00
2019-04-01T06:54:36.015Z,1019.03
2019-04-01T06:55:36.045Z,1019.04
2019-04-01T06:56:36.084Z,1019.05
2019-04-01T06:57:36.109Z,1019.07
2019-04-01T06:58:36.196Z,1019.04
2019-04-01T06:59:36.474Z,1019.07
2019-04-01T07:00:36.201Z,1019.05
2019-04-01T07:02:36.274Z,1019.10
2019-04-01T07:03:36.343Z,1019.10
2019-04-01T07:04:36.323Z,1019.05
2019-04-01T07:05:36.413Z,1019.07
2019-04-01T07:06:36.434Z,1019.07
2019-04-01T07:08:36.499Z,1019.02
2019-04-01T07:09:36.570Z,1019.05
2019-04-01T07:10:36.518Z,1019.05
2019-04-01T07:11:37.044Z,1019.03
2019-04-01T07:12:36.582Z,1019.00
2019-04-01T07:13:39.884Z,1018.98
2019-04-01T07:14:36.695Z,1018.98
2019-04-01T07:15:36.671Z,1018.98
2019-04-01T07:16:39.895Z,1018.96
2019-04-01T07:17:37.039Z,1018.96
2019-04-01T07:18:36.762Z,1018.96
2019-04-01T07:19:36.847Z,1018.95
2019-04-01T07:20:36.831Z,1018.98
2019-04-01T07:21:36.904Z,1018.95
2019-04-01T07:22:36.942Z,1018.95
2019-04-01T07:24:37.298Z,1018.96
2019-04-01T07:25:36.982Z,1018.95
2019-04-01T07:26:37.015Z,1018.98
2019-04-01T07:27:37.042Z,1018.98
2019-04-01T07:28:37.079Z,1018.98
2019-04-01T07:29:37.167Z,1018.98
2019-04-01T07:31:37.231Z,1018.95
2019-04-01T07:32:37.505Z,1018.95
2019-04-01T07:33:37.284Z,1018.95
2019-04-01T07:34:37.313Z,1018.97
2019-04-01T07:35:37.295Z,1018.94
2019-04-01T07:36:37.323Z,1018.96
2019-04-01T07:37:37.415Z,1018.93
2019-04-01T07:38:37.393Z,1018.88
2019-04-01T07:39:37.472Z,1018.93
2019-04-01T07:40:37.454Z,1018.88
2019-04-01T07:41:37.534Z,1018.88
2019-04-01T07:42:37.565Z,1018.91
2019-04-01T07:44:37.626Z,1018.83
2019-04-01T07:45:37.960Z,1018.92
2019-04-01T07:46:37.653Z,1018.96
2019-04-01T07:47:37.672Z,1018.89
2019-04-01T07:48:37.761Z,1018.88
2019-04-01T07:49:37.865Z,1018.82
2019-04-01T07:50:37.984Z,1018.86
2019-04-01T07:51:38.696Z,1018.83
2019-04-01T07:53:38.216Z,1018.83
2019-04-01T07:54:37.948Z,1018.82
2019-04-01T07:55:37.924Z,1018.81
2019-04-01T07:56:37.962Z,1018.83
2019-04-01T07:57:38.037Z,1018.80
2019-04-01T07:58:38.078Z,1018.77
2019-04-01T08:00:38.083Z,1018.76
2019-04-01T08:01:38.168Z,1018.74
2019-04-01T08:02:38.204Z,1018.77
2019-04-01T08:03:41.667Z,1018.78
2019-04-01T08:04:38.223Z,1018.80
2019-04-01T08:05:38.299Z,1018.77
2019-04-01T08:06:38.317Z,1018.75
2019-04-01T08:07:38.656Z,1018.74
2019-04-01T08:08:38.348Z,1018.74
2019-04-01T08:11:38.482Z,1018.67
2019-04-01T08:12:38.461Z,1018.71
2019-04-01T08:14:38.570Z,1018.68
2019-04-01T08:15:38.554Z,1018.73
2019-04-01T08:16:38.585Z,1018.72
2019-04-01T08:17:38.620Z,1018.72
2019-04-01T08:18:38.654Z,1018.70
2019-04-01T08:19:38.735Z,1018.71
2019-04-01T08:20:38.740Z,1018.68
2019-04-01T08:21:38.807Z,1018.69
2019-04-01T08:22:38.834Z,1018.67
2019-04-01T08:23:38.809Z,1018.67
2019-04-01T08:24:38.910Z,1018.72
2019-04-01T08:25:38.922Z,1018.64
2019-04-01T08:26:38.961Z,1018.57
2019-04-01T08:27:39.242Z,1018.62
2019-04-01T08:28:38.970Z,1018.58
2019-04-01T08:29:38.998Z,1018.58
2019-04-01T08:30:39.085Z,1018.59
2019-04-01T08:31:39.167Z,1018.58
2019-04-01T08:32:39.100Z,1018.58
2019-04-01T08:33:39.127Z,1018.56
2019-04-01T08:34:39.465Z,1018.56
2019-04-01T08:35:39.191Z,1018.59
2019-04-01T08:36:39.293Z,1018.56
2019-04-01T08:37:40.589Z,1018.58
2019-04-01T08:38:39.286Z,1018.58
2019-04-01T08:39:39.326Z,1018.60
2019-04-01T08:40:39.350Z,1018.60
2019-04-01T08:41:39.736Z,1018.56
2019-04-01T08:42:39.466Z,1018.58
2019-04-01T08:43:39.446Z,1018.56
2019-04-01T08:44:39.471Z,1018.55
2019-04-01T08:45:39.561Z,1018.50
2019-04-01T08:46:39.604Z,1018.51
2019-04-01T08:47:39.926Z,1018.51
2019-04-01T08:48:39.655Z,1018.50
2019-04-01T08:49:39.639Z,1018.50
2019-04-01T08:51:39.748Z,1018.49
2019-04-01T08:52:39.731Z,1018.47
2019-04-01T08:53:40.111Z,1018.47
2019-04-01T08:54:39.854Z,1018.45
2019-04-01T08:55:39.833Z,1018.43
2019-04-01T08:56:39.860Z,1018.45
2019-04-01T08:58:39.965Z,1018.42
2019-04-01T09:00:40.011Z,1018.43
2019-04-01T09:01:40.068Z,1018.45
2019-04-01T09:02:40.099Z,1018.36
2019-04-01T09:03:40.083Z,1018.39
2019-04-01T09:04:40.112Z,1018.42
2019-04-01T09:05:40.449Z,1018.45
2019-04-01T09:06:40.180Z,1018.41
2019-04-01T09:07:40.254Z,1018.43
2019-04-01T09:08:40.245Z,1018.39
2019-04-01T09:10:40.349Z,1018.40
2019-04-01T09:11:40.338Z,1018.42
2019-04-01T09:12:40.666Z,1018.43
2019-04-01T09:13:40.459Z,1018.40
2019-04-01T09:14:40.485Z,1018.40
2019-04-01T09:15:40.461Z,1018.37
2019-04-01T09:16:40.500Z,1018.38
2019-04-01T09:17:40.789Z,1018.35
2019-04-01T09:18:40.568Z,1018.31
2019-04-01T09:19:40.944Z,1018.30
2019-04-01T09:20:40.621Z,1018.27
2019-04-01T09:21:40.708Z,1018.27
2019-04-01T09:22:40.739Z,1018.24
2019-04-01T09:23:40.972Z,1018.21
2019-04-01T09:24:40.760Z,1018.26
2019-04-01T09:25:40.841Z,1018.22
2019-04-01T09:26:41.164Z,1018.23
2019-04-01T09:27:40.910Z,1018.20
2019-04-01T09:28:40.885Z,1018.22
2019-04-01T09:29:40.978Z,1018.19
2019-04-01T09:30:41.002Z,1018.20
2019-04-01T09:31:40.975Z,1018.15
2019-04-01T09:32:41.006Z,1018.19
2019-04-01T09:33:41.368Z,1018.18
2019-04-01T09:34:41.072Z,1018.16
2019-04-01T09:35:41.237Z,1018.13
2019-04-01T09:36:41.182Z,1018.14
2019-04-01T09:37:41.212Z,1018.09
2019-04-01T09:38:41.197Z,1018.05
2019-04-01T09:39:41.230Z,1018.07
2019-04-01T09:40:41.571Z,1018.05
2019-04-01T09:41:41.339Z,1018.07
2019-04-01T09:42:41.369Z,1018.04
2019-04-01T09:43:41.362Z,1018.05
2019-04-01T09:44:41.389Z,1018.00
2019-04-01T09:45:41.474Z,1018.01
2019-04-01T09:46:41.500Z,1018.02
2019-04-01T09:47:41.532Z,1018.03
2019-04-01T09:48:41.518Z,1017.97
2019-04-01T09:49:41.543Z,1017.96
2019-04-01T09:50:41.625Z,1017.97
2019-04-01T09:51:48.436Z,1017.96
2019-04-01T09:52:41.645Z,1017.96
2019-04-01T09:53:42.024Z,1017.93
2019-04-01T09:54:41.864Z,1017.97
2019-04-01T09:55:41.785Z,1017.96
2019-04-01T09:56:41.776Z,1017.94
2019-04-01T09:58:41.841Z,1017.91
2019-04-01T09:59:42.241Z,1017.90
2019-04-01T10:01:42.007Z,1017.90
2019-04-01T10:02:42.010Z,1017.83
2019-04-01T10:03:41.993Z,1017.84
2019-04-01T10:04:42.092Z,1017.83
2019-04-01T10:05:42.060Z,1017.85
2019-04-01T10:06:42.147Z,1017.87
2019-04-01T10:07:42.233Z,1017.81
2019-04-01T10:08:42.948Z,1017.79
2019-04-01T10:09:42.251Z,1017.74
2019-04-01T10:10:42.224Z,1017.73
2019-04-01T10:12:42.630Z,1017.72
2019-04-01T10:13:42.373Z,1017.68
2019-04-01T10:14:42.356Z,1017.65
2019-04-01T10:15:42.386Z,1017.63
2019-04-01T10:16:42.413Z,1017.69
2019-04-01T10:17:42.512Z,1017.63
2019-04-01T10:18:42.531Z,1017.65
2019-04-01T10:19:42.806Z,1017.58
2019-04-01T10:20:42.544Z,1017.58
2019-04-01T10:21:45.269Z,1017.55
2019-04-01T10:22:42.609Z,1017.57
2019-04-01T10:24:42.672Z,1017.45
2019-04-01T10:25:42.759Z,1017.44
2019-04-01T10:26:42.739Z,1017.46
2019-04-01T10:27:42.814Z,1017.45
2019-04-01T10:28:42.797Z,1017.41
2019-04-01T10:30:42.910Z,1017.38
2019-04-01T10:31:42.900Z,1017.39
2019-04-01T10:32:42.940Z,1017.42
2019-04-01T10:33:43.007Z,1017.39
2019-04-01T10:34:43.044Z,1017.36
2019-04-01T10:35:43.022Z,1017.37
2019-04-01T10:36:43.064Z,1017.32
2019-04-01T10:37:43.087Z,1017.31
2019-04-01T10:38:46.474Z,1017.26
2019-04-01T10:39:43.210Z,1017.28
2019-04-01T10:40:43.198Z,1017.25
2019-04-01T10:41:43.281Z,1017.23
2019-04-01T10:42:43.307Z,1017.20
2019-04-01T10:43:43.285Z,1017.22
2019-04-01T10:44:43.315Z,1017.20
2019-04-01T10:45:43.646Z,1017.16
2019-04-01T10:46:43.438Z,1017.18
2019-04-01T10:47:43.429Z,1017.14
2019-04-01T10:48:43.486Z,1017.12
2019-04-01T10:49:43.541Z,1017.14
2019-04-01T10:50:43.635Z,1017.08
2019-04-01T10:51:43.599Z,1017.09
2019-04-01T10:52:44.185Z,1017.10
2019-04-01T10:53:43.690Z,1017.06
2019-04-01T10:54:43.711Z,1017.05
2019-04-01T10:55:43.718Z,1017.01
2019-04-01T10:56:43.719Z,1017.01
2019-04-01T10:57:43.980Z,1016.99
2019-04-01T10:58:44.113Z,1017.01
2019-04-01T10:59:43.978Z,1017.02
2019-04-01T11:00:43.910Z,1016.99
2019-04-01T11:01:43.892Z,1016.99
2019-04-01T11:02:43.945Z,1016.98
2019-04-01T11:03:44.089Z,1016.95
2019-04-01T11:04:44.341Z,1016.96
2019-04-01T11:05:44.091Z,1016.95
2019-04-01T11:06:44.032Z,1016.92
2019-04-01T11:07:44.081Z,1016.89
2019-04-01T11:08:44.150Z,1016.88
2019-04-01T11:09:44.171Z,1016.85
2019-04-01T11:10:44.563Z,1016.80
2019-04-01T11:11:44.244Z,1016.81
2019-04-01T11:12:44.226Z,1016.83
2019-04-01T11:13:44.317Z,1016.80
2019-04-01T11:14:44.288Z,1016.74
2019-04-01T11:15:44.378Z,1016.78
2019-04-01T11:16:44.401Z,1016.80
2019-04-01T11:17:44.733Z,1016.77
2019-04-01T11:18:44.417Z,1016.79
2019-04-01T11:19:44.453Z,1016.80
2019-04-01T11:20:44.533Z,1016.77
2019-04-01T11:21:44.514Z,1016.72
2019-04-01T11:22:44.545Z,1016.70
2019-04-01T11:23:44.584Z,1016.68
2019-04-01T11:24:44.611Z,1016.65
2019-04-01T11:25:44.703Z,1016.69
2019-04-01T11:26:44.725Z,1016.67
2019-04-01T11:27:44.765Z,1016.69
2019-04-01T11:28:44.809Z,1016.72
2019-04-01T11:29:44.826Z,1016.67
2019-04-01T11:30:45.145Z,1016.64
2019-04-01T11:31:44.912Z,1016.62
2019-04-01T11:32:44.971Z,1016.64
2019-04-01T11:34:45.038Z,1016.64
2019-04-01T11:35:45.951Z,1016.65
2019-04-01T11:36:45.006Z,1016.63
2019-04-01T11:37:45.356Z,1016.62
2019-04-01T11:38:45.144Z,1016.58
2019-04-01T11:39:45.115Z,1016.57
2019-04-01T11:40:45.209Z,1016.56
2019-04-01T11:41:45.254Z,1016.54
2019-04-01T11:43:45.341Z,1016.51
2019-04-01T11:44:45.663Z,1016.47
2019-04-01T11:45:45.343Z,1016.45
2019-04-01T11:47:45.466Z,1016.44
2019-04-01T11:48:45.452Z,1016.43
2019-04-01T11:50:47.713Z,1016.43
2019-04-01T11:51:45.935Z,1016.38
2019-04-01T11:52:45.610Z,1016.40
2019-04-01T11:53:45.623Z,1016.39
2019-04-01T11:54:45.596Z,1016.33
2019-04-01T11:55:45.682Z,1016.39
2019-04-01T11:56:45.675Z,1016.36
2019-04-01T11:57:45.741Z,1016.32
2019-04-01T11:58:46.023Z,1016.30
2019-04-01T11:59:45.749Z,1016.23
2019-04-01T12:00:45.831Z,1016.24
2019-04-01T12:01:47.317Z,1016.23
2019-04-01T12:02:46.349Z,1016.22
2019-04-01T12:04:45.979Z,1016.21
2019-04-01T12:05:46.560Z,1016.16
2019-04-01T12:06:45.986Z,1016.17
2019-04-01T12:07:46.018Z,1016.12
2019-04-01T12:08:46.045Z,1016.10
2019-04-01T12:09:46.137Z,1016.08
2019-04-01T12:10:46.119Z,1016.06
2019-04-01T12:11:46.456Z,1016.05
2019-04-01T12:12:46.193Z,1016.08
2019-04-01T12:13:46.267Z,1016.04
2019-04-01T12:14:46.309Z,1016.00
2019-04-01T12:16:46.314Z,1016.00
2019-04-01T12:17:46.370Z,1015.96
2019-04-01T12:18:46.387Z,1015.96
2019-04-01T12:19:46.468Z,1015.93
2019-04-01T12:20:46.515Z,1015.91
2019-04-01T12:21:46.530Z,1015.87
2019-04-01T12:22:46.559Z,1015.96
2019-04-01T12:23:46.837Z,1015.89
2019-04-01T12:24:46.581Z,1015.84
2019-04-01T12:25:46.660Z,1015.83
2019-04-01T12:26:47.163Z,1015.82
2019-04-01T12:27:46.725Z,1015.83
2019-04-01T12:28:46.761Z,1015.83
2019-04-01T12:29:48.352Z,1015.82
2019-04-01T12:30:47.120Z,1015.76
2019-04-01T12:31:46.805Z,1015.76
2019-04-01T12:32:46.893Z,1015.72
2019-04-01T12:33:47.727Z,1015.69
2019-04-01T12:34:47.125Z,1015.70
2019-04-01T12:35:46.931Z,1015.66
2019-04-01T12:36:47.022Z,1015.64
2019-04-01T12:37:47.301Z,1015.64
2019-04-01T12:38:47.189Z,1015.61
2019-04-01T12:39:47.076Z,1015.62
2019-04-01T12:40:47.158Z,1015.59
2019-04-01T12:41:47.592Z,1015.62
2019-04-01T12:42:50.631Z,1015.57
2019-04-01T12:43:47.211Z,1015.57
2019-04-01T12:44:47.526Z,1015.51
2019-04-01T12:45:47.316Z,1015.51
2019-04-01T12:48:47.417Z,1015.46
2019-04-01T12:49:47.450Z,1015.40
2019-04-01T12:50:47.427Z,1015.40
2019-04-01T12:51:47.466Z,1015.35
2019-04-01T12:52:47.551Z,1015.40
2019-04-01T12:53:47.575Z,1015.40
2019-04-01T12:54:47.564Z,1015.38
2019-04-01T12:55:47.603Z,1015.39
2019-04-01T12:56:47.654Z,1015.34